sensor_id;sensor_type;location;lat;lon;timestamp;P1;durP1;ratioP1;P2;durP2;ratioP2
31978;SDS011;18502;43.574;1.276;2022-11-11T00:00:48;49.58;;;24.92;;
31978;SDS011;18502;43.574;1.276;2022-11-11T00:03:14;42.10;;;25.30;;
31978;SDS011;18502;43.574;1.276;2022-11-11T00:05:40;37.63;;;21.67;;
31978;SDS011;18502;43.574;1.276;2022-11-11T00:08:06;37.63;;;22.42;;
31978;SDS011;18502;43.574;1.276;2022-11-11T00:10:31;31.65;;;18.98;;
31978;SDS011;18502;43.574;1.276;2022-11-11T00:13:00;31.27;;;17.48;;
31978;SDS011;18502;43.574;1.276;2022-11-11T00:17:54;30.67;;;18.05;;
31978;SDS011;18502;43.574;1.276;2022-11-11T00:20:38;34.60;;;20.08;;
31978;SDS011;18502;43.574;1.276;2022-11-11T00:23:27;31.17;;;19.55;;
31978;SDS011;18502;43.574;1.276;2022-11-11T00:26:12;36.97;;;19.85;;
31978;SDS011;18502;43.574;1.276;2022-11-11T00:28:39;37.88;;;19.77;;
31978;SDS011;18502;43.574;1.276;2022-11-11T00:31:06;34.75;;;18.58;;
31978;SDS011;18502;43.574;1.276;2022-11-11T00:33:36;35.42;;;20.55;;
31978;SDS011;18502;43.574;1.276;2022-11-11T00:36:03;38.15;;;19.05;;
31978;SDS011;18502;43.574;1.276;2022-11-11T00:38:29;32.90;;;18.88;;
31978;SDS011;18502;43.574;1.276;2022-11-11T00:41:16;34.13;;;19.10;;
31978;SDS011;18502;43.574;1.276;2022-11-11T00:43:44;35.28;;;20.15;;
31978;SDS011;18502;43.574;1.276;2022-11-11T00:46:11;39.20;;;20.67;;
31978;SDS011;18502;43.574;1.276;2022-11-11T00:48:56;38.70;;;21.15;;
31978;SDS011;18502;43.574;1.276;2022-11-11T00:51:40;36.97;;;21.15;;
31978;SDS011;18502;43.574;1.276;2022-11-11T00:54:06;37.80;;;21.13;;
31978;SDS011;18502;43.574;1.276;2022-11-11T00:56:32;36.28;;;22.60;;
31978;SDS011;18502;43.574;1.276;2022-11-11T00:59:00;39.42;;;23.90;;
31978;SDS011;18502;43.574;1.276;2022-11-11T01:01:27;39.22;;;24.80;;
31978;SDS011;18502;43.574;1.276;2022-11-11T01:03:53;35.65;;;21.60;;
31978;SDS011;18502;43.574;1.276;2022-11-11T01:06:19;36.78;;;21.55;;
31978;SDS011;18502;43.574;1.276;2022-11-11T01:08:45;60.90;;;29.00;;
31978;SDS011;18502;43.574;1.276;2022-11-11T01:11:14;56.85;;;29.10;;
31978;SDS011;18502;43.574;1.276;2022-11-11T01:13:41;49.97;;;25.88;;
31978;SDS011;18502;43.574;1.276;2022-11-11T01:16:11;49.70;;;24.33;;
31978;SDS011;18502;43.574;1.276;2022-11-11T01:18:45;42.45;;;21.35;;
31978;SDS011;18502;43.574;1.276;2022-11-11T01:21:12;37.10;;;20.92;;
31978;SDS011;18502;43.574;1.276;2022-11-11T01:23:39;34.10;;;20.73;;
31978;SDS011;18502;43.574;1.276;2022-11-11T01:26:08;33.72;;;22.17;;
31978;SDS011;18502;43.574;1.276;2022-11-11T01:28:36;51.15;;;27.63;;
31978;SDS011;18502;43.574;1.276;2022-11-11T01:31:03;60.47;;;34.10;;
31978;SDS011;18502;43.574;1.276;2022-11-11T01:33:30;56.05;;;29.90;;
31978;SDS011;18502;43.574;1.276;2022-11-11T01:36:01;53.60;;;32.45;;
31978;SDS011;18502;43.574;1.276;2022-11-11T01:38:31;57.08;;;34.40;;
31978;SDS011;18502;43.574;1.276;2022-11-11T01:40:56;60.90;;;33.92;;
31978;SDS011;18502;43.574;1.276;2022-11-11T01:43:22;59.45;;;33.67;;
31978;SDS011;18502;43.574;1.276;2022-11-11T01:45:59;58.03;;;32.67;;
31978;SDS011;18502;43.574;1.276;2022-11-11T01:48:32;55.70;;;31.55;;
31978;SDS011;18502;43.574;1.276;2022-11-11T01:54:09;49.63;;;28.95;;
31978;SDS011;18502;43.574;1.276;2022-11-11T01:56:40;48.00;;;28.77;;
31978;SDS011;18502;43.574;1.276;2022-11-11T01:59:08;45.30;;;26.15;;
31978;SDS011;18502;43.574;1.276;2022-11-11T02:01:37;37.58;;;23.08;;
31978;SDS011;18502;43.574;1.276;2022-11-11T02:04:03;40.33;;;23.77;;
31978;SDS011;18502;43.574;1.276;2022-11-11T02:06:50;34.28;;;20.95;;
31978;SDS011;18502;43.574;1.276;2022-11-11T02:09:18;48.78;;;25.63;;
31978;SDS011;18502;43.574;1.276;2022-11-11T02:11:47;38.03;;;22.27;;
31978;SDS011;18502;43.574;1.276;2022-11-11T02:14:33;38.38;;;20.63;;
31978;SDS011;18502;43.574;1.276;2022-11-11T02:17:12;52.75;;;21.90;;
31978;SDS011;18502;43.574;1.276;2022-11-11T02:19:50;37.67;;;19.38;;
31978;SDS011;18502;43.574;1.276;2022-11-11T02:22:46;38.63;;;21.25;;
31978;SDS011;18502;43.574;1.276;2022-11-11T02:25:21;37.30;;;20.67;;
31978;SDS011;18502;43.574;1.276;2022-11-11T02:27:50;48.72;;;28.17;;
31978;SDS011;18502;43.574;1.276;2022-11-11T02:30:18;46.63;;;28.02;;
31978;SDS011;18502;43.574;1.276;2022-11-11T02:32:47;39.90;;;22.52;;
31978;SDS011;18502;43.574;1.276;2022-11-11T02:35:23;41.33;;;25.13;;
31978;SDS011;18502;43.574;1.276;2022-11-11T02:37:53;36.38;;;22.85;;
31978;SDS011;18502;43.574;1.276;2022-11-11T02:40:20;32.08;;;20.20;;
31978;SDS011;18502;43.574;1.276;2022-11-11T02:42:51;28.33;;;18.80;;
31978;SDS011;18502;43.574;1.276;2022-11-11T02:45:17;28.23;;;18.55;;
31978;SDS011;18502;43.574;1.276;2022-11-11T02:47:43;31.10;;;17.95;;
31978;SDS011;18502;43.574;1.276;2022-11-11T02:50:08;27.63;;;17.83;;
31978;SDS011;18502;43.574;1.276;2022-11-11T02:52:34;26.73;;;17.55;;
31978;SDS011;18502;43.574;1.276;2022-11-11T02:55:00;30.27;;;18.38;;
31978;SDS011;18502;43.574;1.276;2022-11-11T02:57:26;33.20;;;20.05;;
31978;SDS011;18502;43.574;1.276;2022-11-11T02:59:52;28.15;;;18.48;;
31978;SDS011;18502;43.574;1.276;2022-11-11T03:02:18;30.15;;;18.75;;
31978;SDS011;18502;43.574;1.276;2022-11-11T03:04:44;33.30;;;19.67;;
31978;SDS011;18502;43.574;1.276;2022-11-11T03:07:09;29.98;;;19.02;;
31978;SDS011;18502;43.574;1.276;2022-11-11T03:09:35;28.73;;;17.40;;
31978;SDS011;18502;43.574;1.276;2022-11-11T03:12:01;31.10;;;20.98;;
31978;SDS011;18502;43.574;1.276;2022-11-11T03:14:26;32.72;;;20.13;;
31978;SDS011;18502;43.574;1.276;2022-11-11T03:16:52;31.65;;;18.80;;
31978;SDS011;18502;43.574;1.276;2022-11-11T03:19:37;37.00;;;21.10;;
31978;SDS011;18502;43.574;1.276;2022-11-11T03:22:03;27.33;;;17.77;;
31978;SDS011;18502;43.574;1.276;2022-11-11T03:24:29;23.40;;;16.13;;
31978;SDS011;18502;43.574;1.276;2022-11-11T03:27:14;28.15;;;17.90;;
31978;SDS011;18502;43.574;1.276;2022-11-11T03:29:39;30.75;;;17.83;;
31978;SDS011;18502;43.574;1.276;2022-11-11T03:32:07;28.55;;;18.08;;
31978;SDS011;18502;43.574;1.276;2022-11-11T03:34:33;23.17;;;15.35;;
31978;SDS011;18502;43.574;1.276;2022-11-11T03:36:59;26.52;;;16.33;;
31978;SDS011;18502;43.574;1.276;2022-11-11T03:39:43;31.05;;;17.48;;
31978;SDS011;18502;43.574;1.276;2022-11-11T03:42:09;24.58;;;17.70;;
31978;SDS011;18502;43.574;1.276;2022-11-11T03:44:34;23.17;;;15.40;;
31978;SDS011;18502;43.574;1.276;2022-11-11T03:47:00;25.02;;;16.90;;
31978;SDS011;18502;43.574;1.276;2022-11-11T03:49:25;26.70;;;17.08;;
31978;SDS011;18502;43.574;1.276;2022-11-11T03:51:51;28.20;;;17.88;;
31978;SDS011;18502;43.574;1.276;2022-11-11T03:54:17;36.05;;;21.13;;
31978;SDS011;18502;43.574;1.276;2022-11-11T03:56:42;28.42;;;18.73;;
31978;SDS011;18502;43.574;1.276;2022-11-11T03:59:08;34.15;;;18.77;;
31978;SDS011;18502;43.574;1.276;2022-11-11T04:01:34;31.17;;;18.45;;
31978;SDS011;18502;43.574;1.276;2022-11-11T04:04:18;26.48;;;16.50;;
31978;SDS011;18502;43.574;1.276;2022-11-11T04:07:02;25.70;;;16.52;;
31978;SDS011;18502;43.574;1.276;2022-11-11T04:09:46;26.27;;;16.77;;
31978;SDS011;18502;43.574;1.276;2022-11-11T04:12:30;32.08;;;19.73;;
31978;SDS011;18502;43.574;1.276;2022-11-11T04:15:18;30.30;;;18.48;;
31978;SDS011;18502;43.574;1.276;2022-11-11T04:18:02;30.30;;;17.17;;
31978;SDS011;18502;43.574;1.276;2022-11-11T04:20:28;26.85;;;17.55;;
31978;SDS011;18502;43.574;1.276;2022-11-11T04:23:12;32.75;;;18.55;;
31978;SDS011;18502;43.574;1.276;2022-11-11T04:25:38;32.40;;;19.00;;
31978;SDS011;18502;43.574;1.276;2022-11-11T04:28:13;30.55;;;16.92;;
31978;SDS011;18502;43.574;1.276;2022-11-11T04:30:57;27.83;;;16.58;;
31978;SDS011;18502;43.574;1.276;2022-11-11T04:33:23;26.02;;;15.98;;
31978;SDS011;18502;43.574;1.276;2022-11-11T04:35:48;34.28;;;18.73;;
31978;SDS011;18502;43.574;1.276;2022-11-11T04:38:14;28.95;;;17.85;;
31978;SDS011;18502;43.574;1.276;2022-11-11T04:40:59;24.50;;;15.40;;
31978;SDS011;18502;43.574;1.276;2022-11-11T04:43:30;21.20;;;14.98;;
31978;SDS011;18502;43.574;1.276;2022-11-11T04:46:16;28.70;;;15.18;;
31978;SDS011;18502;43.574;1.276;2022-11-11T04:48:42;26.30;;;13.93;;
31978;SDS011;18502;43.574;1.276;2022-11-11T04:51:08;21.98;;;15.23;;
31978;SDS011;18502;43.574;1.276;2022-11-11T04:53:33;32.17;;;18.45;;
31978;SDS011;18502;43.574;1.276;2022-11-11T04:55:59;23.17;;;15.13;;
31978;SDS011;18502;43.574;1.276;2022-11-11T04:58:43;24.27;;;15.40;;
31978;SDS011;18502;43.574;1.276;2022-11-11T05:01:10;25.40;;;15.38;;
31978;SDS011;18502;43.574;1.276;2022-11-11T05:03:56;17.40;;;13.05;;
31978;SDS011;18502;43.574;1.276;2022-11-11T05:06:21;16.50;;;12.20;;
31978;SDS011;18502;43.574;1.276;2022-11-11T05:09:06;16.15;;;11.98;;
31978;SDS011;18502;43.574;1.276;2022-11-11T05:11:32;16.38;;;11.38;;
31978;SDS011;18502;43.574;1.276;2022-11-11T05:14:00;16.35;;;11.77;;
31978;SDS011;18502;43.574;1.276;2022-11-11T05:16:46;17.13;;;10.93;;
31978;SDS011;18502;43.574;1.276;2022-11-11T05:19:38;17.17;;;11.75;;
31978;SDS011;18502;43.574;1.276;2022-11-11T05:22:29;15.45;;;10.73;;
31978;SDS011;18502;43.574;1.276;2022-11-11T05:25:03;15.50;;;11.02;;
31978;SDS011;18502;43.574;1.276;2022-11-11T05:27:49;14.40;;;10.60;;
31978;SDS011;18502;43.574;1.276;2022-11-11T05:30:19;15.35;;;10.38;;
31978;SDS011;18502;43.574;1.276;2022-11-11T05:32:45;19.88;;;10.35;;
31978;SDS011;18502;43.574;1.276;2022-11-11T05:35:12;15.38;;;10.77;;
31978;SDS011;18502;43.574;1.276;2022-11-11T05:37:38;17.20;;;11.93;;
31978;SDS011;18502;43.574;1.276;2022-11-11T05:40:04;17.45;;;11.40;;
31978;SDS011;18502;43.574;1.276;2022-11-11T05:42:31;15.65;;;11.25;;
31978;SDS011;18502;43.574;1.276;2022-11-11T05:44:57;19.38;;;12.13;;
31978;SDS011;18502;43.574;1.276;2022-11-11T05:47:22;15.05;;;11.57;;
31978;SDS011;18502;43.574;1.276;2022-11-11T05:49:48;16.02;;;10.70;;
31978;SDS011;18502;43.574;1.276;2022-11-11T05:52:14;19.70;;;12.70;;
31978;SDS011;18502;43.574;1.276;2022-11-11T05:54:41;18.92;;;12.77;;
31978;SDS011;18502;43.574;1.276;2022-11-11T05:57:07;19.75;;;12.40;;
31978;SDS011;18502;43.574;1.276;2022-11-11T05:59:33;18.98;;;12.77;;
31978;SDS011;18502;43.574;1.276;2022-11-11T06:01:59;17.73;;;12.15;;
31978;SDS011;18502;43.574;1.276;2022-11-11T06:04:25;20.90;;;13.27;;
31978;SDS011;18502;43.574;1.276;2022-11-11T06:06:51;17.92;;;11.70;;
31978;SDS011;18502;43.574;1.276;2022-11-11T06:09:17;19.73;;;11.30;;
31978;SDS011;18502;43.574;1.276;2022-11-11T06:11:43;14.65;;;11.98;;
31978;SDS011;18502;43.574;1.276;2022-11-11T06:14:08;20.02;;;13.80;;
31978;SDS011;18502;43.574;1.276;2022-11-11T06:16:34;21.08;;;14.73;;
31978;SDS011;18502;43.574;1.276;2022-11-11T06:19:00;23.73;;;13.18;;
31978;SDS011;18502;43.574;1.276;2022-11-11T06:21:28;22.25;;;12.23;;
31978;SDS011;18502;43.574;1.276;2022-11-11T06:23:54;23.77;;;14.82;;
31978;SDS011;18502;43.574;1.276;2022-11-11T06:26:20;23.40;;;14.65;;
31978;SDS011;18502;43.574;1.276;2022-11-11T06:28:46;23.92;;;15.50;;
31978;SDS011;18502;43.574;1.276;2022-11-11T06:31:15;23.65;;;14.45;;
31978;SDS011;18502;43.574;1.276;2022-11-11T06:33:45;19.85;;;13.57;;
31978;SDS011;18502;43.574;1.276;2022-11-11T06:36:12;23.77;;;15.05;;
31978;SDS011;18502;43.574;1.276;2022-11-11T06:38:39;25.58;;;14.38;;
31978;SDS011;18502;43.574;1.276;2022-11-11T06:41:05;15.88;;;10.38;;
31978;SDS011;18502;43.574;1.276;2022-11-11T06:43:31;16.17;;;9.55;;
31978;SDS011;18502;43.574;1.276;2022-11-11T06:45:57;12.95;;;9.68;;
31978;SDS011;18502;43.574;1.276;2022-11-11T06:48:23;12.30;;;9.05;;
31978;SDS011;18502;43.574;1.276;2022-11-11T06:50:50;13.88;;;7.88;;
31978;SDS011;18502;43.574;1.276;2022-11-11T06:53:17;14.18;;;7.82;;
31978;SDS011;18502;43.574;1.276;2022-11-11T06:55:44;12.27;;;8.32;;
31978;SDS011;18502;43.574;1.276;2022-11-11T06:58:11;11.48;;;7.30;;
31978;SDS011;18502;43.574;1.276;2022-11-11T07:00:40;12.90;;;7.40;;
31978;SDS011;18502;43.574;1.276;2022-11-11T07:03:07;12.27;;;8.27;;
31978;SDS011;18502;43.574;1.276;2022-11-11T07:05:35;11.98;;;7.72;;
31978;SDS011;18502;43.574;1.276;2022-11-11T07:08:01;13.00;;;8.30;;
31978;SDS011;18502;43.574;1.276;2022-11-11T07:10:29;10.68;;;7.57;;
31978;SDS011;18502;43.574;1.276;2022-11-11T07:12:55;14.70;;;7.85;;
31978;SDS011;18502;43.574;1.276;2022-11-11T07:15:21;13.95;;;7.47;;
31978;SDS011;18502;43.574;1.276;2022-11-11T07:17:47;9.73;;;6.18;;
31978;SDS011;18502;43.574;1.276;2022-11-11T07:20:12;11.60;;;7.78;;
31978;SDS011;18502;43.574;1.276;2022-11-11T07:22:38;11.35;;;7.50;;
31978;SDS011;18502;43.574;1.276;2022-11-11T07:25:04;10.05;;;6.63;;
31978;SDS011;18502;43.574;1.276;2022-11-11T07:27:30;9.18;;;6.75;;
31978;SDS011;18502;43.574;1.276;2022-11-11T07:29:56;10.85;;;7.78;;
31978;SDS011;18502;43.574;1.276;2022-11-11T07:32:21;18.17;;;7.90;;
31978;SDS011;18502;43.574;1.276;2022-11-11T07:34:47;23.88;;;8.93;;
31978;SDS011;18502;43.574;1.276;2022-11-11T07:37:16;36.80;;;8.63;;
31978;SDS011;18502;43.574;1.276;2022-11-11T07:39:41;18.33;;;8.25;;
31978;SDS011;18502;43.574;1.276;2022-11-11T07:42:07;31.98;;;9.15;;
31978;SDS011;18502;43.574;1.276;2022-11-11T07:44:33;25.90;;;9.10;;
31978;SDS011;18502;43.574;1.276;2022-11-11T07:46:58;35.40;;;8.68;;
31978;SDS011;18502;43.574;1.276;2022-11-11T07:49:24;25.48;;;8.57;;
31978;SDS011;18502;43.574;1.276;2022-11-11T07:51:50;21.10;;;7.93;;
31978;SDS011;18502;43.574;1.276;2022-11-11T07:54:15;29.48;;;8.55;;
31978;SDS011;18502;43.574;1.276;2022-11-11T07:56:41;16.05;;;7.28;;
31978;SDS011;18502;43.574;1.276;2022-11-11T07:59:07;13.90;;;6.93;;
31978;SDS011;18502;43.574;1.276;2022-11-11T08:01:32;11.80;;;6.57;;
31978;SDS011;18502;43.574;1.276;2022-11-11T08:03:58;11.25;;;6.80;;
31978;SDS011;18502;43.574;1.276;2022-11-11T08:06:24;11.27;;;6.45;;
31978;SDS011;18502;43.574;1.276;2022-11-11T08:08:49;12.38;;;7.13;;
31978;SDS011;18502;43.574;1.276;2022-11-11T08:11:15;9.43;;;6.57;;
31978;SDS011;18502;43.574;1.276;2022-11-11T08:14:01;11.50;;;5.75;;
31978;SDS011;18502;43.574;1.276;2022-11-11T08:16:27;6.28;;;5.30;;
31978;SDS011;18502;43.574;1.276;2022-11-11T08:18:53;7.38;;;4.93;;
31978;SDS011;18502;43.574;1.276;2022-11-11T08:21:18;7.07;;;4.97;;
31978;SDS011;18502;43.574;1.276;2022-11-11T08:23:44;5.20;;;4.53;;
31978;SDS011;18502;43.574;1.276;2022-11-11T08:26:10;5.30;;;4.25;;
31978;SDS011;18502;43.574;1.276;2022-11-11T08:28:36;6.63;;;4.47;;
31978;SDS011;18502;43.574;1.276;2022-11-11T08:31:01;4.28;;;3.80;;
31978;SDS011;18502;43.574;1.276;2022-11-11T08:33:27;5.57;;;3.97;;
31978;SDS011;18502;43.574;1.276;2022-11-11T08:35:53;4.70;;;4.13;;
31978;SDS011;18502;43.574;1.276;2022-11-11T08:38:23;5.28;;;4.25;;
31978;SDS011;18502;43.574;1.276;2022-11-11T08:40:51;5.20;;;4.10;;
31978;SDS011;18502;43.574;1.276;2022-11-11T08:43:17;7.68;;;4.18;;
31978;SDS011;18502;43.574;1.276;2022-11-11T08:45:44;4.03;;;3.50;;
31978;SDS011;18502;43.574;1.276;2022-11-11T08:48:09;5.63;;;3.55;;
31978;SDS011;18502;43.574;1.276;2022-11-11T08:50:36;5.40;;;3.85;;
31978;SDS011;18502;43.574;1.276;2022-11-11T08:53:02;4.55;;;2.75;;
31978;SDS011;18502;43.574;1.276;2022-11-11T08:55:28;5.78;;;2.95;;
31978;SDS011;18502;43.574;1.276;2022-11-11T08:58:00;5.38;;;3.47;;
31978;SDS011;18502;43.574;1.276;2022-11-11T09:00:29;6.13;;;2.88;;
31978;SDS011;18502;43.574;1.276;2022-11-11T09:02:59;5.30;;;3.15;;
31978;SDS011;18502;43.574;1.276;2022-11-11T09:05:25;8.23;;;3.33;;
31978;SDS011;18502;43.574;1.276;2022-11-11T09:07:51;6.80;;;2.78;;
31978;SDS011;18502;43.574;1.276;2022-11-11T09:10:17;5.93;;;2.88;;
31978;SDS011;18502;43.574;1.276;2022-11-11T09:12:43;6.55;;;3.08;;
31978;SDS011;18502;43.574;1.276;2022-11-11T09:15:08;5.63;;;3.08;;
31978;SDS011;18502;43.574;1.276;2022-11-11T09:17:34;6.50;;;2.75;;
31978;SDS011;18502;43.574;1.276;2022-11-11T09:20:00;4.28;;;2.58;;
31978;SDS011;18502;43.574;1.276;2022-11-11T09:22:25;8.43;;;2.85;;
31978;SDS011;18502;43.574;1.276;2022-11-11T09:24:51;5.55;;;2.90;;
